createdAt,value
2023-01-23T00:13:45.610Z,23.5
2023-01-23T00:28:55.333Z,22.7
2023-01-23T00:44:05.468Z,18
2023-01-23T00:59:21.139Z,17.9
2023-01-23T01:14:31.378Z,21.1
2023-01-23T01:29:43.557Z,20
2023-01-23T01:44:54.110Z,20.1
2023-01-23T02:00:04.555Z,17.2
2023-01-23T02:15:14.281Z,19.7
2023-01-23T02:30:24.409Z,24.2
2023-01-23T02:45:34.908Z,24.6
2023-01-23T03:00:44.915Z,26.1
2023-01-23T03:15:55.236Z,27.5
2023-01-23T03:31:05.608Z,24.2
2023-01-23T03:46:16.020Z,22.4
2023-01-23T04:01:26.243Z,27.9
2023-01-23T04:16:35.921Z,24.9
2023-01-23T04:31:46.332Z,30.2
2023-01-23T04:46:56.269Z,32.1
2023-01-23T05:02:05.721Z,31.8
2023-01-23T05:17:15.752Z,34.9
2023-01-23T05:32:26.093Z,33.1
2023-01-23T05:47:36.214Z,37.3
2023-01-23T06:02:46.703Z,29.4
2023-01-23T06:17:57.289Z,28.5
2023-01-23T06:33:07.738Z,31.7
2023-01-23T06:48:18.345Z,29.3
2023-01-23T07:03:27.812Z,25
2023-01-23T07:18:38.164Z,31.6
2023-01-23T07:33:48.490Z,31.4
2023-01-23T07:48:58.954Z,33.2
2023-01-23T08:04:09.549Z,33.5
2023-01-23T08:19:19.301Z,34.7
2023-01-23T08:34:29.255Z,36.1
2023-01-23T08:49:40.625Z,32.8
2023-01-23T09:04:50.784Z,34
2023-01-23T09:20:01.199Z,34
2023-01-23T09:35:11.845Z,42
2023-01-23T09:50:23.079Z,31.1
2023-01-23T10:05:33.660Z,38.8
2023-01-23T10:20:43.897Z,41.1
2023-01-23T10:35:53.939Z,39.8
2023-01-23T10:51:04.552Z,43.6
2023-01-23T11:06:14.606Z,39.6
2023-01-23T11:21:24.657Z,34.5
2023-01-23T11:36:34.385Z,34.4
2023-01-23T11:51:44.552Z,38.5
2023-01-23T12:06:55.164Z,34.1
2023-01-23T12:22:05.326Z,33
2023-01-23T12:37:31.595Z,22.9
2023-01-23T12:52:43.701Z,31.4
2023-01-23T13:07:53.777Z,31.7
2023-01-23T13:23:03.782Z,37.1
2023-01-23T13:38:14.225Z,32.9
2023-01-23T13:53:24.300Z,37.2
2023-01-23T14:08:34.951Z,31.9
2023-01-23T14:23:44.941Z,38.1
2023-01-23T14:38:54.975Z,38.9
2023-01-23T14:54:06.436Z,31.9
2023-01-23T15:09:21.614Z,32.6
2023-01-23T15:24:32.151Z,33.4
2023-01-23T15:39:44.348Z,33.3
2023-01-23T15:54:54.677Z,32.6
2023-01-23T16:10:05.011Z,35.6
2023-01-23T16:25:14.856Z,48.2
2023-01-23T16:40:25.402Z,41.1
2023-01-23T16:55:34.301Z,39.3
2023-01-23T17:10:47.429Z,31.7
2023-01-23T17:26:02.486Z,33
2023-01-23T17:41:12.707Z,39.6
2023-01-23T17:56:22.546Z,34.3
2023-01-23T18:11:32.683Z,37.7
2023-01-23T18:26:44.558Z,37.3
2023-01-23T18:41:54.794Z,41.2
2023-01-23T18:57:04.831Z,42.1
2023-01-23T19:12:26.452Z,37.9
2023-01-23T19:27:36.887Z,36.1
2023-01-23T19:43:15.058Z,40.4
2023-01-23T19:58:25.625Z,39.2
2023-01-23T20:13:35.869Z,44.1
2023-01-23T20:28:47.234Z,42.7
2023-01-23T20:43:56.875Z,45.6
2023-01-23T20:59:07.023Z,43.5
2023-01-23T21:14:17.126Z,41.7
2023-01-23T21:29:27.872Z,41.3
2023-01-23T21:44:38.006Z,34.3
2023-01-23T21:59:48.147Z,38.1
2023-01-23T22:14:57.366Z,40.8
2023-01-23T22:30:07.609Z,32.1
2023-01-23T22:45:18.155Z,38.6
2023-01-23T23:00:28.183Z,34.2
2023-01-23T23:15:38.148Z,38.1
2023-01-23T23:30:47.962Z,43.7
2023-01-23T23:46:05.584Z,39.9
